Grandview, TX (76050)

9:04 PM CST on December 19, 2014 (GMT -0600)
SE Johnson County | Change Station
CLOSE
Current Station
Personal Weather Station
Location: Grandview, TX
Elevation: 614 ft
Nearby Weather Stations

Elev 614 ft 32.30 °N, 97.13 °W | Updated 4 minutes ago

Overcast
Overcast
47.9 °F
Feels Like 48 °F
N
2.0
Wind Variable Wind from NNE
Gusts 4.0 mph

Today
High -- | Low -- °F
--% Chance of Precip.
Yesterday
High -- | Low -- °F
Precip. -- in
7:24 AM 5:26 PM
Waning Crescent, 5% visible
Pressure 30.20 in
Visibility 5.0 miles
Clouds Mostly Cloudy 900 ft
Overcast 2200 ft
Windchill 48 °F
Dew Point 46 °F
Humidity 94%
Rainfall 0.07 in
Snow Depth Not available.
UV 0 out of 12
Pollen 8.00 out of 12
Air Quality Not available.
Flu Activity Not available.
METAR KINJ 200255Z AUTO 35003KT 5SM BR BKN009 OVC022 09/08 A3020 RMK AO2 T00900076

More Conditions Fewer Conditions

Pressure 30.20 in
Visibility 5.0 miles
Clouds Mostly Cloudy 900 ft
Overcast 2200 ft
Windchill 48 °F
Dew Point 46 °F
Humidity 94%
Rainfall 0.07 in
Snow Depth Not available.
UV 0 out of 12
Pollen 8.00 out of 12
Air Quality Not available.
Flu Activity Not available.
METAR KINJ 200255Z AUTO 35003KT 5SM BR BKN009 OVC022 09/08 A3020 RMK AO2 T00900076

More Conditions Fewer Conditions

10-Day Weather Forecast

Almanac

Astronomy

Dec. 19, 2014 Rise Set
Actual Time
Civil Twilight
Nautical Twilight
Astronomical Twilight
Moon
Length of Visible Light
Length of Day
Tomorrow will be .
, % of the Moon is Illuminated

Today's Extremes

State Highs State Lows

Community

WunderPhotos

Upload Photos

1,779,119 photos uploaded!

WunderBlogs® & News

Nearby

Air Quality

  Air Quality AQ Index Pollutant
Not available.

Snow Depth

Station Depth Elevation

Earthquake Activity

City Distance Mag. Time & Date
Minimum magnitude displayed is 2.5.

Coastal Water Temperatures

Place Temperature

Nearby Weather Stations